sensor_id;sensor_type;location;lat;lon;timestamp;P1;durP1;ratioP1;P2;durP2;ratioP2
11943;SDS011;6031;50.220;10.122;2022-12-29T00:01:52;2.53;;;2.10;;
11943;SDS011;6031;50.220;10.122;2022-12-29T00:04:18;2.47;;;2.17;;
11943;SDS011;6031;50.220;10.122;2022-12-29T00:06:43;2.23;;;2.13;;
11943;SDS011;6031;50.220;10.122;2022-12-29T00:09:13;2.30;;;2.10;;
11943;SDS011;6031;50.220;10.122;2022-12-29T00:11:40;4.00;;;2.70;;
11943;SDS011;6031;50.220;10.122;2022-12-29T00:14:08;2.27;;;2.10;;
11943;SDS011;6031;50.220;10.122;2022-12-29T00:16:52;1.77;;;1.67;;
11943;SDS011;6031;50.220;10.122;2022-12-29T00:19:18;4.33;;;2.20;;
11943;SDS011;6031;50.220;10.122;2022-12-29T00:22:02;1.37;;;1.27;;
11943;SDS011;6031;50.220;10.122;2022-12-29T00:24:51;4.33;;;3.93;;
11943;SDS011;6031;50.220;10.122;2022-12-29T00:27:35;18.97;;;16.97;;
11943;SDS011;6031;50.220;10.122;2022-12-29T00:30:22;14.43;;;8.73;;
11943;SDS011;6031;50.220;10.122;2022-12-29T00:33:10;22.57;;;13.40;;
11943;SDS011;6031;50.220;10.122;2022-12-29T00:38:32;18.17;;;10.67;;
11943;SDS011;6031;50.220;10.122;2022-12-29T00:41:20;15.17;;;10.73;;
11943;SDS011;6031;50.220;10.122;2022-12-29T00:44:05;7.00;;;5.40;;
11943;SDS011;6031;50.220;10.122;2022-12-29T00:46:39;4.87;;;2.53;;
11943;SDS011;6031;50.220;10.122;2022-12-29T00:49:07;4.73;;;4.33;;
11943;SDS011;6031;50.220;10.122;2022-12-29T00:51:53;3.20;;;2.90;;
11943;SDS011;6031;50.220;10.122;2022-12-29T00:54:20;2.87;;;2.40;;
11943;SDS011;6031;50.220;10.122;2022-12-29T00:56:46;2.17;;;2.07;;
11943;SDS011;6031;50.220;10.122;2022-12-29T00:59:16;1.77;;;1.63;;
11943;SDS011;6031;50.220;10.122;2022-12-29T01:01:43;2.70;;;2.10;;
11943;SDS011;6031;50.220;10.122;2022-12-29T01:04:09;2.30;;;2.10;;
11943;SDS011;6031;50.220;10.122;2022-12-29T01:06:37;1.77;;;1.67;;
11943;SDS011;6031;50.220;10.122;2022-12-29T01:09:04;2.17;;;1.97;;
11943;SDS011;6031;50.220;10.122;2022-12-29T01:11:49;2.97;;;2.30;;
11943;SDS011;6031;50.220;10.122;2022-12-29T01:14:15;3.83;;;2.23;;
11943;SDS011;6031;50.220;10.122;2022-12-29T01:16:41;2.90;;;2.70;;
11943;SDS011;6031;50.220;10.122;2022-12-29T01:19:07;1.57;;;1.47;;
11943;SDS011;6031;50.220;10.122;2022-12-29T01:21:32;2.37;;;2.23;;
11943;SDS011;6031;50.220;10.122;2022-12-29T01:23:58;2.10;;;1.67;;
11943;SDS011;6031;50.220;10.122;2022-12-29T01:26:23;2.53;;;1.80;;
11943;SDS011;6031;50.220;10.122;2022-12-29T01:28:49;1.73;;;1.63;;
11943;SDS011;6031;50.220;10.122;2022-12-29T01:31:15;2.17;;;2.07;;
11943;SDS011;6031;50.220;10.122;2022-12-29T01:33:41;2.00;;;1.77;;
11943;SDS011;6031;50.220;10.122;2022-12-29T01:36:08;2.63;;;2.13;;
11943;SDS011;6031;50.220;10.122;2022-12-29T01:38:35;2.30;;;2.10;;
11943;SDS011;6031;50.220;10.122;2022-12-29T01:41:02;2.60;;;2.40;;
11943;SDS011;6031;50.220;10.122;2022-12-29T01:43:41;2.60;;;2.40;;
11943;SDS011;6031;50.220;10.122;2022-12-29T01:46:51;5.07;;;4.57;;
11943;SDS011;6031;50.220;10.122;2022-12-29T01:49:10;12.27;;;9.40;;
11943;SDS011;6031;50.220;10.122;2022-12-29T01:51:42;2.80;;;2.60;;
11943;SDS011;6031;50.220;10.122;2022-12-29T01:54:28;5.77;;;5.37;;
11943;SDS011;6031;50.220;10.122;2022-12-29T01:57:00;8.33;;;7.43;;
11943;SDS011;6031;50.220;10.122;2022-12-29T01:59:30;2.77;;;2.50;;
11943;SDS011;6031;50.220;10.122;2022-12-29T02:01:59;1.70;;;1.60;;
11943;SDS011;6031;50.220;10.122;2022-12-29T02:04:25;2.53;;;1.77;;
11943;SDS011;6031;50.220;10.122;2022-12-29T02:06:55;1.80;;;1.70;;
11943;SDS011;6031;50.220;10.122;2022-12-29T02:09:24;2.83;;;2.03;;
11943;SDS011;6031;50.220;10.122;2022-12-29T02:11:50;1.90;;;1.80;;
11943;SDS011;6031;50.220;10.122;2022-12-29T02:14:17;1.83;;;1.73;;
11943;SDS011;6031;50.220;10.122;2022-12-29T02:16:47;2.00;;;1.60;;
11943;SDS011;6031;50.220;10.122;2022-12-29T02:22:44;1.17;;;1.07;;
11943;SDS011;6031;50.220;10.122;2022-12-29T02:25:28;2.07;;;1.90;;
11943;SDS011;6031;50.220;10.122;2022-12-29T02:28:04;2.60;;;1.77;;
11943;SDS011;6031;50.220;10.122;2022-12-29T02:31:19;1.93;;;1.50;;
11943;SDS011;6031;50.220;10.122;2022-12-29T02:33:49;1.30;;;1.20;;
11943;SDS011;6031;50.220;10.122;2022-12-29T02:36:31;1.23;;;1.23;;
11943;SDS011;6031;50.220;10.122;2022-12-29T02:39:04;2.97;;;1.73;;
11943;SDS011;6031;50.220;10.122;2022-12-29T02:44:45;1.50;;;1.40;;
11943;SDS011;6031;50.220;10.122;2022-12-29T02:49:50;2.20;;;1.97;;
11943;SDS011;6031;50.220;10.122;2022-12-29T02:52:30;2.10;;;1.40;;
11943;SDS011;6031;50.220;10.122;2022-12-29T02:55:00;3.00;;;2.20;;
11943;SDS011;6031;50.220;10.122;2022-12-29T02:59:58;3.80;;;2.17;;
11943;SDS011;6031;50.220;10.122;2022-12-29T03:07:54;1.67;;;1.43;;
11943;SDS011;6031;50.220;10.122;2022-12-29T03:18:45;1.90;;;1.67;;
11943;SDS011;6031;50.220;10.122;2022-12-29T03:21:22;5.20;;;1.57;;
11943;SDS011;6031;50.220;10.122;2022-12-29T03:24:13;1.50;;;1.40;;
11943;SDS011;6031;50.220;10.122;2022-12-29T03:26:42;2.13;;;1.87;;
11943;SDS011;6031;50.220;10.122;2022-12-29T03:29:11;1.47;;;1.33;;
11943;SDS011;6031;50.220;10.122;2022-12-29T03:31:37;1.70;;;1.20;;
11943;SDS011;6031;50.220;10.122;2022-12-29T03:34:04;1.73;;;1.47;;
11943;SDS011;6031;50.220;10.122;2022-12-29T03:36:33;1.63;;;1.40;;
11943;SDS011;6031;50.220;10.122;2022-12-29T03:39:09;2.07;;;1.97;;
11943;SDS011;6031;50.220;10.122;2022-12-29T03:41:37;2.43;;;2.20;;
11943;SDS011;6031;50.220;10.122;2022-12-29T03:44:08;2.17;;;1.40;;
11943;SDS011;6031;50.220;10.122;2022-12-29T03:46:34;2.80;;;2.13;;
11943;SDS011;6031;50.220;10.122;2022-12-29T03:49:00;1.60;;;1.50;;
11943;SDS011;6031;50.220;10.122;2022-12-29T03:51:25;2.33;;;1.50;;
11943;SDS011;6031;50.220;10.122;2022-12-29T03:53:50;2.07;;;1.90;;
11943;SDS011;6031;50.220;10.122;2022-12-29T03:56:16;4.40;;;1.70;;
11943;SDS011;6031;50.220;10.122;2022-12-29T03:58:42;3.70;;;1.80;;
11943;SDS011;6031;50.220;10.122;2022-12-29T04:01:07;2.63;;;1.63;;
11943;SDS011;6031;50.220;10.122;2022-12-29T04:03:33;3.17;;;1.97;;
11943;SDS011;6031;50.220;10.122;2022-12-29T04:05:58;4.40;;;3.97;;
11943;SDS011;6031;50.220;10.122;2022-12-29T04:08:24;11.57;;;8.87;;
11943;SDS011;6031;50.220;10.122;2022-12-29T04:10:50;5.10;;;4.23;;
11943;SDS011;6031;50.220;10.122;2022-12-29T04:13:15;4.23;;;2.03;;
11943;SDS011;6031;50.220;10.122;2022-12-29T04:15:42;9.47;;;5.93;;
11943;SDS011;6031;50.220;10.122;2022-12-29T04:18:10;18.77;;;12.10;;
11943;SDS011;6031;50.220;10.122;2022-12-29T04:20:35;4.90;;;3.83;;
11943;SDS011;6031;50.220;10.122;2022-12-29T04:23:20;5.70;;;4.20;;
11943;SDS011;6031;50.220;10.122;2022-12-29T04:25:45;7.13;;;3.30;;
11943;SDS011;6031;50.220;10.122;2022-12-29T04:28:12;3.17;;;2.90;;
11943;SDS011;6031;50.220;10.122;2022-12-29T04:30:38;3.47;;;3.00;;
11943;SDS011;6031;50.220;10.122;2022-12-29T04:33:03;4.57;;;3.43;;
11943;SDS011;6031;50.220;10.122;2022-12-29T04:35:29;7.60;;;5.00;;
11943;SDS011;6031;50.220;10.122;2022-12-29T04:37:54;3.57;;;3.23;;
11943;SDS011;6031;50.220;10.122;2022-12-29T04:40:20;3.27;;;2.97;;
11943;SDS011;6031;50.220;10.122;2022-12-29T04:42:45;6.47;;;5.03;;
11943;SDS011;6031;50.220;10.122;2022-12-29T04:45:11;2.87;;;2.60;;
11943;SDS011;6031;50.220;10.122;2022-12-29T04:47:36;4.73;;;2.07;;
11943;SDS011;6031;50.220;10.122;2022-12-29T04:50:02;7.93;;;5.93;;
11943;SDS011;6031;50.220;10.122;2022-12-29T04:52:28;3.30;;;2.80;;
11943;SDS011;6031;50.220;10.122;2022-12-29T04:54:54;2.70;;;2.17;;
11943;SDS011;6031;50.220;10.122;2022-12-29T04:57:20;2.23;;;2.03;;
11943;SDS011;6031;50.220;10.122;2022-12-29T04:59:45;2.27;;;2.13;;
11943;SDS011;6031;50.220;10.122;2022-12-29T05:02:11;1.57;;;1.47;;
11943;SDS011;6031;50.220;10.122;2022-12-29T05:04:36;1.90;;;1.80;;
11943;SDS011;6031;50.220;10.122;2022-12-29T05:07:02;5.83;;;2.80;;
11943;SDS011;6031;50.220;10.122;2022-12-29T05:09:27;3.87;;;3.50;;
11943;SDS011;6031;50.220;10.122;2022-12-29T05:11:54;2.30;;;2.10;;
11943;SDS011;6031;50.220;10.122;2022-12-29T05:14:20;2.43;;;2.33;;
11943;SDS011;6031;50.220;10.122;2022-12-29T05:16:46;2.57;;;2.10;;
11943;SDS011;6031;50.220;10.122;2022-12-29T05:19:11;1.50;;;1.40;;
11943;SDS011;6031;50.220;10.122;2022-12-29T05:21:37;2.47;;;2.27;;
11943;SDS011;6031;50.220;10.122;2022-12-29T05:24:02;2.67;;;2.43;;
11943;SDS011;6031;50.220;10.122;2022-12-29T05:26:28;3.00;;;2.77;;
11943;SDS011;6031;50.220;10.122;2022-12-29T05:28:54;3.10;;;1.90;;
11943;SDS011;6031;50.220;10.122;2022-12-29T05:31:19;1.30;;;1.20;;
11943;SDS011;6031;50.220;10.122;2022-12-29T05:33:45;1.73;;;1.10;;
11943;SDS011;6031;50.220;10.122;2022-12-29T05:36:10;1.23;;;1.13;;
11943;SDS011;6031;50.220;10.122;2022-12-29T05:38:36;1.90;;;1.80;;
11943;SDS011;6031;50.220;10.122;2022-12-29T05:41:02;1.73;;;1.40;;
11943;SDS011;6031;50.220;10.122;2022-12-29T05:43:27;1.80;;;1.30;;
11943;SDS011;6031;50.220;10.122;2022-12-29T05:45:53;1.83;;;1.47;;
11943;SDS011;6031;50.220;10.122;2022-12-29T05:48:19;1.77;;;1.50;;
11943;SDS011;6031;50.220;10.122;2022-12-29T05:50:49;4.37;;;2.07;;
11943;SDS011;6031;50.220;10.122;2022-12-29T05:53:16;1.00;;;0.97;;
11943;SDS011;6031;50.220;10.122;2022-12-29T05:55:42;2.30;;;1.50;;
11943;SDS011;6031;50.220;10.122;2022-12-29T05:58:09;2.47;;;2.20;;
11943;SDS011;6031;50.220;10.122;2022-12-29T06:00:34;3.80;;;2.67;;
11943;SDS011;6031;50.220;10.122;2022-12-29T06:03:00;2.43;;;2.00;;
11943;SDS011;6031;50.220;10.122;2022-12-29T06:05:26;3.23;;;1.30;;
11943;SDS011;6031;50.220;10.122;2022-12-29T06:07:51;3.47;;;2.13;;
11943;SDS011;6031;50.220;10.122;2022-12-29T06:10:17;1.97;;;1.23;;
11943;SDS011;6031;50.220;10.122;2022-12-29T06:12:42;2.50;;;1.63;;
11943;SDS011;6031;50.220;10.122;2022-12-29T06:15:08;1.30;;;1.23;;
11943;SDS011;6031;50.220;10.122;2022-12-29T06:17:34;1.83;;;1.60;;
11943;SDS011;6031;50.220;10.122;2022-12-29T06:20:00;6.70;;;1.53;;
11943;SDS011;6031;50.220;10.122;2022-12-29T06:22:26;2.50;;;1.53;;
11943;SDS011;6031;50.220;10.122;2022-12-29T06:24:51;1.73;;;1.63;;
11943;SDS011;6031;50.220;10.122;2022-12-29T06:27:17;3.23;;;1.73;;
11943;SDS011;6031;50.220;10.122;2022-12-29T06:29:42;2.17;;;1.97;;
11943;SDS011;6031;50.220;10.122;2022-12-29T06:32:08;1.47;;;1.37;;
11943;SDS011;6031;50.220;10.122;2022-12-29T06:34:34;3.33;;;1.73;;
11943;SDS011;6031;50.220;10.122;2022-12-29T06:37:00;3.17;;;2.30;;
11943;SDS011;6031;50.220;10.122;2022-12-29T06:39:26;2.27;;;2.10;;
11943;SDS011;6031;50.220;10.122;2022-12-29T06:41:52;2.40;;;2.10;;
11943;SDS011;6031;50.220;10.122;2022-12-29T06:44:18;2.33;;;1.67;;
11943;SDS011;6031;50.220;10.122;2022-12-29T06:46:44;5.73;;;2.30;;
11943;SDS011;6031;50.220;10.122;2022-12-29T06:49:10;2.73;;;2.40;;
11943;SDS011;6031;50.220;10.122;2022-12-29T06:51:35;3.07;;;2.83;;
11943;SDS011;6031;50.220;10.122;2022-12-29T06:54:01;3.20;;;2.43;;
11943;SDS011;6031;50.220;10.122;2022-12-29T06:56:26;3.63;;;2.27;;
11943;SDS011;6031;50.220;10.122;2022-12-29T06:58:52;8.00;;;7.20;;
11943;SDS011;6031;50.220;10.122;2022-12-29T07:01:17;60.97;;;28.83;;
11943;SDS011;6031;50.220;10.122;2022-12-29T07:03:43;82.47;;;37.37;;
11943;SDS011;6031;50.220;10.122;2022-12-29T07:06:08;14.40;;;8.43;;
11943;SDS011;6031;50.220;10.122;2022-12-29T07:08:34;31.60;;;16.87;;
11943;SDS011;6031;50.220;10.122;2022-12-29T07:10:59;23.27;;;12.97;;
11943;SDS011;6031;50.220;10.122;2022-12-29T07:13:25;8.50;;;5.90;;
11943;SDS011;6031;50.220;10.122;2022-12-29T07:15:50;20.03;;;12.53;;
11943;SDS011;6031;50.220;10.122;2022-12-29T07:18:16;5.40;;;3.53;;
11943;SDS011;6031;50.220;10.122;2022-12-29T07:20:42;7.70;;;5.67;;
11943;SDS011;6031;50.220;10.122;2022-12-29T07:23:07;6.73;;;4.87;;
11943;SDS011;6031;50.220;10.122;2022-12-29T07:25:33;7.43;;;4.90;;
11943;SDS011;6031;50.220;10.122;2022-12-29T07:28:00;6.67;;;4.80;;
11943;SDS011;6031;50.220;10.122;2022-12-29T07:30:26;17.20;;;11.20;;
11943;SDS011;6031;50.220;10.122;2022-12-29T07:32:52;8.53;;;5.27;;
11943;SDS011;6031;50.220;10.122;2022-12-29T07:35:17;9.27;;;6.30;;
11943;SDS011;6031;50.220;10.122;2022-12-29T07:37:43;10.10;;;5.57;;
11943;SDS011;6031;50.220;10.122;2022-12-29T07:40:09;11.13;;;7.33;;
11943;SDS011;6031;50.220;10.122;2022-12-29T07:42:35;4.47;;;3.40;;
11943;SDS011;6031;50.220;10.122;2022-12-29T07:45:00;3.53;;;3.10;;
11943;SDS011;6031;50.220;10.122;2022-12-29T07:47:26;1.70;;;1.60;;
11943;SDS011;6031;50.220;10.122;2022-12-29T07:49:52;3.20;;;1.70;;
11943;SDS011;6031;50.220;10.122;2022-12-29T07:52:17;4.20;;;1.63;;
11943;SDS011;6031;50.220;10.122;2022-12-29T07:54:43;2.30;;;1.77;;
11943;SDS011;6031;50.220;10.122;2022-12-29T07:57:09;2.33;;;1.63;;
11943;SDS011;6031;50.220;10.122;2022-12-29T07:59:34;2.60;;;2.00;;
11943;SDS011;6031;50.220;10.122;2022-12-29T08:02:00;2.33;;;2.13;;
11943;SDS011;6031;50.220;10.122;2022-12-29T08:04:25;2.77;;;1.43;;
11943;SDS011;6031;50.220;10.122;2022-12-29T08:06:51;2.43;;;1.93;;
11943;SDS011;6031;50.220;10.122;2022-12-29T08:09:16;1.67;;;1.57;;
11943;SDS011;6031;50.220;10.122;2022-12-29T08:11:42;2.47;;;1.20;;
11943;SDS011;6031;50.220;10.122;2022-12-29T08:14:08;2.10;;;1.90;;
11943;SDS011;6031;50.220;10.122;2022-12-29T08:16:34;1.47;;;1.23;;
11943;SDS011;6031;50.220;10.122;2022-12-29T08:19:00;1.33;;;1.10;;
11943;SDS011;6031;50.220;10.122;2022-12-29T08:21:29;1.43;;;1.33;;
11943;SDS011;6031;50.220;10.122;2022-12-29T08:23:54;2.87;;;1.53;;
11943;SDS011;6031;50.220;10.122;2022-12-29T08:26:20;1.43;;;1.33;;
11943;SDS011;6031;50.220;10.122;2022-12-29T08:28:45;2.07;;;1.60;;
11943;SDS011;6031;50.220;10.122;2022-12-29T08:31:11;1.47;;;1.37;;
11943;SDS011;6031;50.220;10.122;2022-12-29T08:33:37;1.80;;;1.07;;
11943;SDS011;6031;50.220;10.122;2022-12-29T08:36:03;2.90;;;1.60;;
11943;SDS011;6031;50.220;10.122;2022-12-29T08:38:30;3.80;;;1.50;;
11943;SDS011;6031;50.220;10.122;2022-12-29T08:40:56;2.67;;;1.40;;
11943;SDS011;6031;50.220;10.122;2022-12-29T08:43:23;2.60;;;1.57;;
11943;SDS011;6031;50.220;10.122;2022-12-29T08:45:49;3.37;;;1.67;;
11943;SDS011;6031;50.220;10.122;2022-12-29T08:48:14;1.40;;;1.30;;
11943;SDS011;6031;50.220;10.122;2022-12-29T08:50:43;1.47;;;1.33;;
11943;SDS011;6031;50.220;10.122;2022-12-29T08:53:09;1.47;;;1.37;;
11943;SDS011;6031;50.220;10.122;2022-12-29T08:55:35;1.60;;;1.50;;
11943;SDS011;6031;50.220;10.122;2022-12-29T08:58:00;2.57;;;1.80;;
11943;SDS011;6031;50.220;10.122;2022-12-29T09:00:26;1.70;;;1.60;;
11943;SDS011;6031;50.220;10.122;2022-12-29T09:02:51;2.60;;;1.50;;
11943;SDS011;6031;50.220;10.122;2022-12-29T09:05:17;1.53;;;1.43;;
11943;SDS011;6031;50.220;10.122;2022-12-29T09:07:42;1.60;;;1.50;;
11943;SDS011;6031;50.220;10.122;2022-12-29T09:10:08;1.67;;;1.57;;
11943;SDS011;6031;50.220;10.122;2022-12-29T09:12:34;2.73;;;1.63;;
11943;SDS011;6031;50.220;10.122;2022-12-29T09:14:59;1.80;;;1.70;;
11943;SDS011;6031;50.220;10.122;2022-12-29T09:17:25;3.70;;;1.60;;
11943;SDS011;6031;50.220;10.122;2022-12-29T09:20:09;2.53;;;2.30;;
11943;SDS011;6031;50.220;10.122;2022-12-29T09:22:36;3.07;;;2.77;;
11943;SDS011;6031;50.220;10.122;2022-12-29T09:25:01;2.03;;;1.90;;
11943;SDS011;6031;50.220;10.122;2022-12-29T09:27:27;1.67;;;1.57;;
11943;SDS011;6031;50.220;10.122;2022-12-29T09:29:53;3.97;;;2.43;;
11943;SDS011;6031;50.220;10.122;2022-12-29T09:32:18;2.43;;;1.67;;
11943;SDS011;6031;50.220;10.122;2022-12-29T09:34:44;3.67;;;2.77;;
11943;SDS011;6031;50.220;10.122;2022-12-29T09:37:09;1.47;;;1.37;;
11943;SDS011;6031;50.220;10.122;2022-12-29T09:39:35;3.30;;;2.73;;
11943;SDS011;6031;50.220;10.122;2022-12-29T09:47:35;14.13;;;7.87;;
11943;SDS011;6031;50.220;10.122;2022-12-29T09:50:05;17.47;;;11.07;;
11943;SDS011;6031;50.220;10.122;2022-12-29T09:52:51;25.17;;;13.43;;
11943;SDS011;6031;50.220;10.122;2022-12-29T09:55:26;10.67;;;6.60;;
11943;SDS011;6031;50.220;10.122;2022-12-29T09:58:00;9.43;;;6.03;;
11943;SDS011;6031;50.220;10.122;2022-12-29T10:00:37;11.03;;;7.37;;
11943;SDS011;6031;50.220;10.122;2022-12-29T10:03:15;5.97;;;4.17;;
11943;SDS011;6031;50.220;10.122;2022-12-29T10:08:37;6.30;;;4.00;;
11943;SDS011;6031;50.220;10.122;2022-12-29T10:11:29;17.63;;;9.57;;
11943;SDS011;6031;50.220;10.122;2022-12-29T10:16:52;9.40;;;4.40;;
11943;SDS011;6031;50.220;10.122;2022-12-29T10:22:09;3.50;;;2.67;;
11943;SDS011;6031;50.220;10.122;2022-12-29T10:24:47;2.40;;;2.20;;
11943;SDS011;6031;50.220;10.122;2022-12-29T10:27:15;3.60;;;3.17;;
11943;SDS011;6031;50.220;10.122;2022-12-29T10:29:49;1.83;;;1.67;;
11943;SDS011;6031;50.220;10.122;2022-12-29T10:32:53;1.70;;;1.50;;
11943;SDS011;6031;50.220;10.122;2022-12-29T10:35:18;2.83;;;1.67;;
11943;SDS011;6031;50.220;10.122;2022-12-29T10:43:40;3.17;;;2.87;;
11943;SDS011;6031;50.220;10.122;2022-12-29T10:46:21;3.17;;;2.37;;
11943;SDS011;6031;50.220;10.122;2022-12-29T10:48:50;3.83;;;2.63;;
11943;SDS011;6031;50.220;10.122;2022-12-29T10:51:22;2.47;;;2.20;;
11943;SDS011;6031;50.220;10.122;2022-12-29T11:07:20;2.27;;;2.07;;
11943;SDS011;6031;50.220;10.122;2022-12-29T11:09:46;1.73;;;1.63;;
11943;SDS011;6031;50.220;10.122;2022-12-29T11:12:20;1.33;;;1.10;;
11943;SDS011;6031;50.220;10.122;2022-12-29T11:14:59;4.67;;;1.23;;
11943;SDS011;6031;50.220;10.122;2022-12-29T11:17:44;1.47;;;1.37;;
11943;SDS011;6031;50.220;10.122;2022-12-29T11:20:28;1.37;;;1.10;;
11943;SDS011;6031;50.220;10.122;2022-12-29T11:23:05;2.53;;;2.33;;
11943;SDS011;6031;50.220;10.122;2022-12-29T11:26:05;4.57;;;4.17;;
11943;SDS011;6031;50.220;10.122;2022-12-29T11:29:03;2.53;;;1.70;;
11943;SDS011;6031;50.220;10.122;2022-12-29T11:34:08;2.40;;;2.20;;
11943;SDS011;6031;50.220;10.122;2022-12-29T11:36:42;8.57;;;3.60;;
11943;SDS011;6031;50.220;10.122;2022-12-29T11:39:16;3.40;;;1.90;;
11943;SDS011;6031;50.220;10.122;2022-12-29T11:41:57;1.63;;;1.53;;
11943;SDS011;6031;50.220;10.122;2022-12-29T11:44:24;3.73;;;1.87;;
11943;SDS011;6031;50.220;10.122;2022-12-29T11:46:51;3.37;;;1.40;;
11943;SDS011;6031;50.220;10.122;2022-12-29T11:49:22;1.57;;;1.50;;
11943;SDS011;6031;50.220;10.122;2022-12-29T11:51:50;3.83;;;1.30;;
11943;SDS011;6031;50.220;10.122;2022-12-29T11:54:27;0.73;;;0.73;;
11943;SDS011;6031;50.220;10.122;2022-12-29T11:56:57;0.97;;;0.97;;
11943;SDS011;6031;50.220;10.122;2022-12-29T11:59:25;0.63;;;0.57;;
11943;SDS011;6031;50.220;10.122;2022-12-29T12:05:12;1.80;;;1.27;;
11943;SDS011;6031;50.220;10.122;2022-12-29T12:07:49;1.80;;;0.60;;
11943;SDS011;6031;50.220;10.122;2022-12-29T12:10:29;0.70;;;0.70;;
11943;SDS011;6031;50.220;10.122;2022-12-29T12:13:03;1.30;;;0.73;;
11943;SDS011;6031;50.220;10.122;2022-12-29T12:15:43;5.50;;;1.10;;
11943;SDS011;6031;50.220;10.122;2022-12-29T12:18:23;1.90;;;1.50;;
11943;SDS011;6031;50.220;10.122;2022-12-29T12:20:56;2.53;;;1.00;;
11943;SDS011;6031;50.220;10.122;2022-12-29T12:23:47;0.40;;;0.40;;
11943;SDS011;6031;50.220;10.122;2022-12-29T12:26:32;1.00;;;0.77;;
11943;SDS011;6031;50.220;10.122;2022-12-29T12:29:20;0.60;;;0.60;;
11943;SDS011;6031;50.220;10.122;2022-12-29T12:31:51;1.60;;;1.50;;
11943;SDS011;6031;50.220;10.122;2022-12-29T12:34:23;1.33;;;1.00;;
11943;SDS011;6031;50.220;10.122;2022-12-29T12:39:38;2.50;;;1.77;;
11943;SDS011;6031;50.220;10.122;2022-12-29T12:42:24;5.73;;;3.13;;
11943;SDS011;6031;50.220;10.122;2022-12-29T12:48:07;2.00;;;1.43;;
11943;SDS011;6031;50.220;10.122;2022-12-29T12:50:43;4.50;;;2.20;;
11943;SDS011;6031;50.220;10.122;2022-12-29T12:56:11;2.33;;;1.77;;
11943;SDS011;6031;50.220;10.122;2022-12-29T12:59:03;2.17;;;1.80;;
11943;SDS011;6031;50.220;10.122;2022-12-29T13:10:18;1.90;;;1.80;;
11943;SDS011;6031;50.220;10.122;2022-12-29T13:13:10;0.60;;;0.60;;
11943;SDS011;6031;50.220;10.122;2022-12-29T13:15:57;1.50;;;0.60;;
11943;SDS011;6031;50.220;10.122;2022-12-29T13:18:34;0.97;;;0.50;;
11943;SDS011;6031;50.220;10.122;2022-12-29T13:24:19;2.27;;;1.47;;
11943;SDS011;6031;50.220;10.122;2022-12-29T13:27:11;0.97;;;0.97;;
11943;SDS011;6031;50.220;10.122;2022-12-29T13:29:42;4.10;;;2.27;;
11943;SDS011;6031;50.220;10.122;2022-12-29T13:35:01;5.13;;;1.37;;
11943;SDS011;6031;50.220;10.122;2022-12-29T13:37:50;5.27;;;2.37;;
11943;SDS011;6031;50.220;10.122;2022-12-29T13:40:24;3.30;;;2.33;;
11943;SDS011;6031;50.220;10.122;2022-12-29T13:42:51;0.80;;;0.80;;
11943;SDS011;6031;50.220;10.122;2022-12-29T13:45:20;0.70;;;0.70;;
11943;SDS011;6031;50.220;10.122;2022-12-29T13:47:52;2.27;;;1.03;;
11943;SDS011;6031;50.220;10.122;2022-12-29T13:50:23;0.80;;;0.60;;
11943;SDS011;6031;50.220;10.122;2022-12-29T13:52:58;0.83;;;0.80;;
11943;SDS011;6031;50.220;10.122;2022-12-29T13:55:47;2.07;;;0.50;;
11943;SDS011;6031;50.220;10.122;2022-12-29T13:58:31;2.00;;;0.97;;
11943;SDS011;6031;50.220;10.122;2022-12-29T14:01:15;2.40;;;1.07;;
11943;SDS011;6031;50.220;10.122;2022-12-29T14:04:02;1.20;;;0.87;;
11943;SDS011;6031;50.220;10.122;2022-12-29T14:06:34;1.63;;;1.53;;
11943;SDS011;6031;50.220;10.122;2022-12-29T14:09:06;2.97;;;0.83;;
11943;SDS011;6031;50.220;10.122;2022-12-29T14:11:52;1.00;;;0.93;;
11943;SDS011;6031;50.220;10.122;2022-12-29T14:14:25;0.70;;;0.70;;
11943;SDS011;6031;50.220;10.122;2022-12-29T14:16:56;1.83;;;1.10;;
11943;SDS011;6031;50.220;10.122;2022-12-29T14:19:35;1.03;;;0.60;;
11943;SDS011;6031;50.220;10.122;2022-12-29T14:22:08;1.33;;;1.07;;
11943;SDS011;6031;50.220;10.122;2022-12-29T14:31:56;0.63;;;0.63;;
11943;SDS011;6031;50.220;10.122;2022-12-29T14:36:57;3.40;;;1.03;;
11943;SDS011;6031;50.220;10.122;2022-12-29T14:39:32;3.47;;;1.00;;
11943;SDS011;6031;50.220;10.122;2022-12-29T14:44:34;0.97;;;0.97;;
11943;SDS011;6031;50.220;10.122;2022-12-29T14:47:12;0.83;;;0.67;;
11943;SDS011;6031;50.220;10.122;2022-12-29T14:49:56;2.50;;;1.20;;
11943;SDS011;6031;50.220;10.122;2022-12-29T14:52:30;1.53;;;1.43;;
11943;SDS011;6031;50.220;10.122;2022-12-29T14:54:57;2.63;;;1.10;;
11943;SDS011;6031;50.220;10.122;2022-12-29T14:57:35;6.73;;;2.70;;
11943;SDS011;6031;50.220;10.122;2022-12-29T15:00:14;3.67;;;2.43;;
11943;SDS011;6031;50.220;10.122;2022-12-29T15:05:42;1.77;;;1.30;;
11943;SDS011;6031;50.220;10.122;2022-12-29T15:08:11;6.30;;;4.60;;
11943;SDS011;6031;50.220;10.122;2022-12-29T15:10:53;4.60;;;4.07;;
11943;SDS011;6031;50.220;10.122;2022-12-29T15:13:23;3.70;;;3.00;;
11943;SDS011;6031;50.220;10.122;2022-12-29T15:15:58;1.70;;;1.60;;
11943;SDS011;6031;50.220;10.122;2022-12-29T15:18:25;2.33;;;2.23;;
11943;SDS011;6031;50.220;10.122;2022-12-29T15:20:54;8.87;;;8.07;;
11943;SDS011;6031;50.220;10.122;2022-12-29T15:23:25;3.40;;;2.57;;
11943;SDS011;6031;50.220;10.122;2022-12-29T15:28:24;2.73;;;2.53;;
11943;SDS011;6031;50.220;10.122;2022-12-29T15:31:01;2.10;;;2.00;;
11943;SDS011;6031;50.220;10.122;2022-12-29T15:33:29;2.23;;;1.60;;
11943;SDS011;6031;50.220;10.122;2022-12-29T15:35:55;7.53;;;5.30;;
11943;SDS011;6031;50.220;10.122;2022-12-29T15:38:23;5.77;;;5.00;;
11943;SDS011;6031;50.220;10.122;2022-12-29T15:40:52;11.33;;;7.90;;
11943;SDS011;6031;50.220;10.122;2022-12-29T15:43:29;3.23;;;2.60;;
11943;SDS011;6031;50.220;10.122;2022-12-29T15:46:12;6.43;;;2.70;;
11943;SDS011;6031;50.220;10.122;2022-12-29T15:48:38;5.20;;;4.27;;
11943;SDS011;6031;50.220;10.122;2022-12-29T15:51:15;4.97;;;3.73;;
11943;SDS011;6031;50.220;10.122;2022-12-29T15:53:46;6.30;;;3.73;;
11943;SDS011;6031;50.220;10.122;2022-12-29T15:56:14;3.53;;;2.53;;
11943;SDS011;6031;50.220;10.122;2022-12-29T15:58:42;2.40;;;2.20;;
11943;SDS011;6031;50.220;10.122;2022-12-29T16:01:23;1.67;;;1.57;;
11943;SDS011;6031;50.220;10.122;2022-12-29T16:03:54;5.37;;;3.47;;
11943;SDS011;6031;50.220;10.122;2022-12-29T16:08:47;2.67;;;2.30;;
11943;SDS011;6031;50.220;10.122;2022-12-29T16:11:37;3.70;;;2.03;;
11943;SDS011;6031;50.220;10.122;2022-12-29T16:14:25;1.30;;;1.20;;
11943;SDS011;6031;50.220;10.122;2022-12-29T16:16:57;2.20;;;1.83;;
11943;SDS011;6031;50.220;10.122;2022-12-29T16:19:32;1.53;;;1.43;;
11943;SDS011;6031;50.220;10.122;2022-12-29T16:21:59;2.63;;;1.83;;
11943;SDS011;6031;50.220;10.122;2022-12-29T16:24:31;2.23;;;1.30;;
11943;SDS011;6031;50.220;10.122;2022-12-29T16:27:08;3.60;;;1.83;;
11943;SDS011;6031;50.220;10.122;2022-12-29T16:29:43;2.30;;;1.90;;
11943;SDS011;6031;50.220;10.122;2022-12-29T16:32:25;1.50;;;1.40;;
11943;SDS011;6031;50.220;10.122;2022-12-29T16:37:38;1.17;;;0.90;;
11943;SDS011;6031;50.220;10.122;2022-12-29T16:42:49;1.50;;;1.03;;
11943;SDS011;6031;50.220;10.122;2022-12-29T16:47:43;0.60;;;0.60;;
11943;SDS011;6031;50.220;10.122;2022-12-29T16:50:11;1.10;;;0.50;;
11943;SDS011;6031;50.220;10.122;2022-12-29T16:52:41;2.77;;;1.33;;
11943;SDS011;6031;50.220;10.122;2022-12-29T16:55:14;2.73;;;1.20;;
11943;SDS011;6031;50.220;10.122;2022-12-29T16:57:41;6.30;;;4.10;;
11943;SDS011;6031;50.220;10.122;2022-12-29T17:00:19;2.70;;;2.03;;
11943;SDS011;6031;50.220;10.122;2022-12-29T17:02:46;2.90;;;1.87;;
11943;SDS011;6031;50.220;10.122;2022-12-29T17:05:14;1.77;;;1.67;;
11943;SDS011;6031;50.220;10.122;2022-12-29T17:07:42;4.00;;;2.67;;